sensor_id;sensor_type;location;lat;lon;timestamp;P1;durP1;ratioP1;P2;durP2;ratioP2
27408;SDS011;20413;50.782;7.152;2023-01-28T00:02:19;6.13;;;3.90;;
27408;SDS011;20413;50.782;7.152;2023-01-28T00:04:45;6.38;;;4.18;;
27408;SDS011;20413;50.782;7.152;2023-01-28T00:07:11;6.10;;;4.35;;
27408;SDS011;20413;50.782;7.152;2023-01-28T00:09:37;4.93;;;4.20;;
27408;SDS011;20413;50.782;7.152;2023-01-28T00:12:04;7.03;;;4.35;;
27408;SDS011;20413;50.782;7.152;2023-01-28T00:14:30;4.65;;;4.10;;
27408;SDS011;20413;50.782;7.152;2023-01-28T00:16:56;5.85;;;4.55;;
27408;SDS011;20413;50.782;7.152;2023-01-28T00:19:22;5.53;;;3.97;;
27408;SDS011;20413;50.782;7.152;2023-01-28T00:21:48;7.00;;;4.07;;
27408;SDS011;20413;50.782;7.152;2023-01-28T00:24:14;6.32;;;4.30;;
27408;SDS011;20413;50.782;7.152;2023-01-28T00:26:40;5.95;;;4.18;;
27408;SDS011;20413;50.782;7.152;2023-01-28T00:29:06;6.43;;;4.32;;
27408;SDS011;20413;50.782;7.152;2023-01-28T00:31:32;6.70;;;4.70;;
27408;SDS011;20413;50.782;7.152;2023-01-28T00:33:59;5.50;;;4.55;;
27408;SDS011;20413;50.782;7.152;2023-01-28T00:36:25;4.88;;;4.18;;
27408;SDS011;20413;50.782;7.152;2023-01-28T00:38:55;6.60;;;4.40;;
27408;SDS011;20413;50.782;7.152;2023-01-28T00:41:23;6.32;;;4.55;;
27408;SDS011;20413;50.782;7.152;2023-01-28T00:43:50;5.40;;;4.20;;
27408;SDS011;20413;50.782;7.152;2023-01-28T00:46:16;6.10;;;4.68;;
27408;SDS011;20413;50.782;7.152;2023-01-28T00:48:42;6.45;;;4.28;;
27408;SDS011;20413;50.782;7.152;2023-01-28T00:51:09;6.50;;;4.70;;
27408;SDS011;20413;50.782;7.152;2023-01-28T00:53:36;6.50;;;4.72;;
27408;SDS011;20413;50.782;7.152;2023-01-28T00:56:04;5.57;;;3.37;;
27408;SDS011;20413;50.782;7.152;2023-01-28T00:58:30;4.80;;;3.80;;
27408;SDS011;20413;50.782;7.152;2023-01-28T01:01:04;5.30;;;4.38;;
27408;SDS011;20413;50.782;7.152;2023-01-28T01:03:31;6.32;;;4.38;;
27408;SDS011;20413;50.782;7.152;2023-01-28T01:05:57;5.55;;;4.13;;
27408;SDS011;20413;50.782;7.152;2023-01-28T01:08:23;4.90;;;4.38;;
27408;SDS011;20413;50.782;7.152;2023-01-28T01:10:58;7.28;;;4.22;;
27408;SDS011;20413;50.782;7.152;2023-01-28T01:13:25;4.45;;;4.05;;
27408;SDS011;20413;50.782;7.152;2023-01-28T01:15:59;4.55;;;4.00;;
27408;SDS011;20413;50.782;7.152;2023-01-28T01:18:25;4.63;;;4.22;;
27408;SDS011;20413;50.782;7.152;2023-01-28T01:20:54;6.47;;;4.10;;
27408;SDS011;20413;50.782;7.152;2023-01-28T01:25:48;6.45;;;4.10;;
27408;SDS011;20413;50.782;7.152;2023-01-28T01:28:15;7.45;;;2.90;;
27408;SDS011;20413;50.782;7.152;2023-01-28T01:30:41;5.25;;;3.92;;
27408;SDS011;20413;50.782;7.152;2023-01-28T01:33:07;4.90;;;3.67;;
27408;SDS011;20413;50.782;7.152;2023-01-28T01:35:33;5.82;;;3.63;;
27408;SDS011;20413;50.782;7.152;2023-01-28T01:37:59;4.72;;;3.65;;
27408;SDS011;20413;50.782;7.152;2023-01-28T01:40:27;5.28;;;3.90;;
27408;SDS011;20413;50.782;7.152;2023-01-28T01:42:54;4.82;;;3.80;;
27408;SDS011;20413;50.782;7.152;2023-01-28T01:45:20;5.03;;;4.20;;
27408;SDS011;20413;50.782;7.152;2023-01-28T01:48:05;6.60;;;4.43;;
27408;SDS011;20413;50.782;7.152;2023-01-28T01:50:36;5.90;;;3.35;;
27408;SDS011;20413;50.782;7.152;2023-01-28T01:53:06;5.57;;;3.78;;
27408;SDS011;20413;50.782;7.152;2023-01-28T01:55:34;5.88;;;4.20;;
27408;SDS011;20413;50.782;7.152;2023-01-28T01:58:03;4.47;;;3.80;;
27408;SDS011;20413;50.782;7.152;2023-01-28T02:00:31;4.57;;;4.00;;
27408;SDS011;20413;50.782;7.152;2023-01-28T02:02:57;6.07;;;4.35;;
27408;SDS011;20413;50.782;7.152;2023-01-28T02:05:24;6.20;;;4.43;;
27408;SDS011;20413;50.782;7.152;2023-01-28T02:07:54;7.20;;;5.05;;
27408;SDS011;20413;50.782;7.152;2023-01-28T02:10:40;6.45;;;4.60;;
27408;SDS011;20413;50.782;7.152;2023-01-28T02:13:06;7.63;;;4.15;;
27408;SDS011;20413;50.782;7.152;2023-01-28T02:15:32;7.07;;;4.57;;
27408;SDS011;20413;50.782;7.152;2023-01-28T02:17:59;6.75;;;4.90;;
27408;SDS011;20413;50.782;7.152;2023-01-28T02:20:27;6.45;;;4.50;;
27408;SDS011;20413;50.782;7.152;2023-01-28T02:26:04;6.90;;;4.25;;
27408;SDS011;20413;50.782;7.152;2023-01-28T02:31:10;5.97;;;4.57;;
27408;SDS011;20413;50.782;7.152;2023-01-28T02:34:01;5.78;;;4.90;;
27408;SDS011;20413;50.782;7.152;2023-01-28T02:38:54;7.20;;;4.40;;
27408;SDS011;20413;50.782;7.152;2023-01-28T02:41:23;9.75;;;6.20;;
27408;SDS011;20413;50.782;7.152;2023-01-28T02:43:50;10.02;;;5.53;;
27408;SDS011;20413;50.782;7.152;2023-01-28T02:46:19;7.60;;;5.10;;
27408;SDS011;20413;50.782;7.152;2023-01-28T02:54:18;7.10;;;5.40;;
27408;SDS011;20413;50.782;7.152;2023-01-28T02:57:01;8.10;;;5.32;;
27408;SDS011;20413;50.782;7.152;2023-01-28T02:59:47;9.13;;;5.40;;
27408;SDS011;20413;50.782;7.152;2023-01-28T03:07:35;9.90;;;6.38;;
27408;SDS011;20413;50.782;7.152;2023-01-28T03:10:03;12.52;;;6.22;;
27408;SDS011;20413;50.782;7.152;2023-01-28T03:12:31;9.32;;;6.07;;
27408;SDS011;20413;50.782;7.152;2023-01-28T03:15:21;11.82;;;6.90;;
27408;SDS011;20413;50.782;7.152;2023-01-28T03:18:12;11.02;;;7.13;;
27408;SDS011;20413;50.782;7.152;2023-01-28T03:23:56;11.73;;;7.22;;
27408;SDS011;20413;50.782;7.152;2023-01-28T03:26:47;11.75;;;7.50;;
27408;SDS011;20413;50.782;7.152;2023-01-28T03:29:36;14.70;;;7.35;;
27408;SDS011;20413;50.782;7.152;2023-01-28T03:32:22;10.38;;;6.93;;
27408;SDS011;20413;50.782;7.152;2023-01-28T03:35:07;11.25;;;6.97;;
27408;SDS011;20413;50.782;7.152;2023-01-28T03:37:54;10.25;;;6.90;;
27408;SDS011;20413;50.782;7.152;2023-01-28T03:40:23;12.43;;;7.07;;
27408;SDS011;20413;50.782;7.152;2023-01-28T03:42:49;12.20;;;7.35;;
27408;SDS011;20413;50.782;7.152;2023-01-28T03:45:16;10.52;;;7.15;;
27408;SDS011;20413;50.782;7.152;2023-01-28T03:47:42;11.27;;;6.70;;
27408;SDS011;20413;50.782;7.152;2023-01-28T03:50:08;12.07;;;7.15;;
27408;SDS011;20413;50.782;7.152;2023-01-28T03:52:34;9.73;;;6.55;;
27408;SDS011;20413;50.782;7.152;2023-01-28T03:55:00;10.25;;;6.53;;
27408;SDS011;20413;50.782;7.152;2023-01-28T03:57:37;10.20;;;6.90;;
27408;SDS011;20413;50.782;7.152;2023-01-28T04:00:03;11.98;;;7.32;;
27408;SDS011;20413;50.782;7.152;2023-01-28T04:02:29;11.35;;;7.55;;
27408;SDS011;20413;50.782;7.152;2023-01-28T04:04:55;12.45;;;7.25;;
27408;SDS011;20413;50.782;7.152;2023-01-28T04:07:23;11.68;;;7.63;;
27408;SDS011;20413;50.782;7.152;2023-01-28T04:09:49;10.55;;;6.80;;
27408;SDS011;20413;50.782;7.152;2023-01-28T04:12:15;14.65;;;7.38;;
27408;SDS011;20413;50.782;7.152;2023-01-28T04:14:42;13.10;;;7.25;;
27408;SDS011;20413;50.782;7.152;2023-01-28T04:17:08;11.95;;;7.63;;
27408;SDS011;20413;50.782;7.152;2023-01-28T04:19:34;11.73;;;7.47;;
27408;SDS011;20413;50.782;7.152;2023-01-28T04:22:05;15.32;;;8.43;;
27408;SDS011;20413;50.782;7.152;2023-01-28T04:24:31;11.80;;;8.05;;
27408;SDS011;20413;50.782;7.152;2023-01-28T04:26:57;13.95;;;8.57;;
27408;SDS011;20413;50.782;7.152;2023-01-28T04:29:23;12.25;;;8.02;;
27408;SDS011;20413;50.782;7.152;2023-01-28T04:31:49;13.55;;;8.40;;
27408;SDS011;20413;50.782;7.152;2023-01-28T04:34:15;16.67;;;9.10;;
27408;SDS011;20413;50.782;7.152;2023-01-28T04:36:41;17.48;;;9.68;;
27408;SDS011;20413;50.782;7.152;2023-01-28T04:39:07;13.40;;;8.80;;
27408;SDS011;20413;50.782;7.152;2023-01-28T04:41:36;14.95;;;9.93;;
27408;SDS011;20413;50.782;7.152;2023-01-28T04:44:02;15.35;;;8.52;;
27408;SDS011;20413;50.782;7.152;2023-01-28T04:46:29;18.00;;;10.07;;
27408;SDS011;20413;50.782;7.152;2023-01-28T04:48:55;19.05;;;9.88;;
27408;SDS011;20413;50.782;7.152;2023-01-28T04:51:21;18.80;;;9.95;;
27408;SDS011;20413;50.782;7.152;2023-01-28T04:53:47;16.90;;;9.63;;
27408;SDS011;20413;50.782;7.152;2023-01-28T04:56:13;14.75;;;9.18;;
27408;SDS011;20413;50.782;7.152;2023-01-28T04:58:39;16.80;;;9.57;;
27408;SDS011;20413;50.782;7.152;2023-01-28T05:01:05;17.55;;;10.32;;
27408;SDS011;20413;50.782;7.152;2023-01-28T05:03:31;20.30;;;9.85;;
27408;SDS011;20413;50.782;7.152;2023-01-28T05:05:57;18.08;;;9.50;;
27408;SDS011;20413;50.782;7.152;2023-01-28T05:08:23;14.38;;;9.90;;
27408;SDS011;20413;50.782;7.152;2023-01-28T05:10:49;16.60;;;9.88;;
27408;SDS011;20413;50.782;7.152;2023-01-28T05:13:15;16.35;;;9.88;;
27408;SDS011;20413;50.782;7.152;2023-01-28T05:15:41;16.25;;;10.57;;
27408;SDS011;20413;50.782;7.152;2023-01-28T05:18:07;18.67;;;10.07;;
27408;SDS011;20413;50.782;7.152;2023-01-28T05:20:33;17.55;;;10.68;;
27408;SDS011;20413;50.782;7.152;2023-01-28T05:22:59;16.70;;;10.27;;
27408;SDS011;20413;50.782;7.152;2023-01-28T05:25:25;16.92;;;9.75;;
27408;SDS011;20413;50.782;7.152;2023-01-28T05:27:51;16.42;;;10.68;;
27408;SDS011;20413;50.782;7.152;2023-01-28T05:30:18;15.35;;;9.65;;
27408;SDS011;20413;50.782;7.152;2023-01-28T05:32:44;16.90;;;10.15;;
27408;SDS011;20413;50.782;7.152;2023-01-28T05:35:10;17.27;;;10.25;;
27408;SDS011;20413;50.782;7.152;2023-01-28T05:37:36;14.73;;;9.73;;
27408;SDS011;20413;50.782;7.152;2023-01-28T05:40:05;20.05;;;10.75;;
27408;SDS011;20413;50.782;7.152;2023-01-28T05:42:31;16.38;;;10.20;;
27408;SDS011;20413;50.782;7.152;2023-01-28T05:44:57;18.92;;;10.85;;
27408;SDS011;20413;50.782;7.152;2023-01-28T05:47:24;17.53;;;10.17;;
27408;SDS011;20413;50.782;7.152;2023-01-28T05:49:51;15.23;;;10.20;;
27408;SDS011;20413;50.782;7.152;2023-01-28T05:52:17;15.40;;;9.77;;
27408;SDS011;20413;50.782;7.152;2023-01-28T05:54:43;17.35;;;10.38;;
27408;SDS011;20413;50.782;7.152;2023-01-28T05:57:09;14.50;;;9.57;;
27408;SDS011;20413;50.782;7.152;2023-01-28T05:59:35;17.35;;;9.48;;
27408;SDS011;20413;50.782;7.152;2023-01-28T06:02:01;13.52;;;9.57;;
27408;SDS011;20413;50.782;7.152;2023-01-28T06:04:27;14.35;;;9.20;;
27408;SDS011;20413;50.782;7.152;2023-01-28T06:06:53;15.35;;;9.43;;
27408;SDS011;20413;50.782;7.152;2023-01-28T06:09:19;14.07;;;9.40;;
27408;SDS011;20413;50.782;7.152;2023-01-28T06:11:45;13.88;;;9.98;;
27408;SDS011;20413;50.782;7.152;2023-01-28T06:14:11;16.27;;;9.07;;
27408;SDS011;20413;50.782;7.152;2023-01-28T06:16:40;11.65;;;8.40;;
27408;SDS011;20413;50.782;7.152;2023-01-28T06:19:06;13.52;;;9.60;;
27408;SDS011;20413;50.782;7.152;2023-01-28T06:21:32;13.07;;;9.05;;
27408;SDS011;20413;50.782;7.152;2023-01-28T06:24:01;15.75;;;9.02;;
27408;SDS011;20413;50.782;7.152;2023-01-28T06:26:27;14.55;;;8.93;;
27408;SDS011;20413;50.782;7.152;2023-01-28T06:28:53;15.35;;;9.73;;
27408;SDS011;20413;50.782;7.152;2023-01-28T06:31:20;13.73;;;8.90;;
27408;SDS011;20413;50.782;7.152;2023-01-28T06:33:46;11.48;;;8.43;;
27408;SDS011;20413;50.782;7.152;2023-01-28T06:36:12;13.02;;;8.73;;
27408;SDS011;20413;50.782;7.152;2023-01-28T06:38:38;15.13;;;8.70;;
27408;SDS011;20413;50.782;7.152;2023-01-28T06:41:04;13.00;;;8.43;;
27408;SDS011;20413;50.782;7.152;2023-01-28T06:43:30;12.10;;;7.95;;
27408;SDS011;20413;50.782;7.152;2023-01-28T06:45:56;15.38;;;8.52;;
27408;SDS011;20413;50.782;7.152;2023-01-28T06:48:23;12.93;;;8.95;;
27408;SDS011;20413;50.782;7.152;2023-01-28T06:50:49;12.38;;;7.63;;
27408;SDS011;20413;50.782;7.152;2023-01-28T06:53:15;11.00;;;8.13;;
27408;SDS011;20413;50.782;7.152;2023-01-28T06:55:41;12.55;;;8.68;;
27408;SDS011;20413;50.782;7.152;2023-01-28T06:58:08;11.32;;;8.30;;
27408;SDS011;20413;50.782;7.152;2023-01-28T07:00:34;13.32;;;8.45;;
27408;SDS011;20413;50.782;7.152;2023-01-28T07:03:00;12.13;;;7.80;;
27408;SDS011;20413;50.782;7.152;2023-01-28T07:05:26;13.52;;;8.45;;
27408;SDS011;20413;50.782;7.152;2023-01-28T07:07:52;10.93;;;7.65;;
27408;SDS011;20413;50.782;7.152;2023-01-28T07:10:18;13.70;;;8.32;;
27408;SDS011;20413;50.782;7.152;2023-01-28T07:12:44;13.68;;;8.55;;
27408;SDS011;20413;50.782;7.152;2023-01-28T07:15:10;12.82;;;8.50;;
27408;SDS011;20413;50.782;7.152;2023-01-28T07:17:39;12.38;;;8.27;;
27408;SDS011;20413;50.782;7.152;2023-01-28T07:20:05;13.02;;;7.97;;
27408;SDS011;20413;50.782;7.152;2023-01-28T07:22:32;10.93;;;7.53;;
27408;SDS011;20413;50.782;7.152;2023-01-28T07:24:58;11.82;;;7.60;;
27408;SDS011;20413;50.782;7.152;2023-01-28T07:27:25;10.30;;;7.20;;
27408;SDS011;20413;50.782;7.152;2023-01-28T07:29:51;11.38;;;8.02;;
27408;SDS011;20413;50.782;7.152;2023-01-28T07:32:17;10.52;;;7.10;;
27408;SDS011;20413;50.782;7.152;2023-01-28T07:34:43;12.10;;;7.90;;
27408;SDS011;20413;50.782;7.152;2023-01-28T07:37:09;11.90;;;7.40;;
27408;SDS011;20413;50.782;7.152;2023-01-28T07:39:35;11.05;;;7.28;;
27408;SDS011;20413;50.782;7.152;2023-01-28T07:42:01;13.02;;;8.02;;
27408;SDS011;20413;50.782;7.152;2023-01-28T07:44:27;11.93;;;8.23;;
27408;SDS011;20413;50.782;7.152;2023-01-28T07:46:53;11.77;;;8.20;;
27408;SDS011;20413;50.782;7.152;2023-01-28T07:49:19;11.32;;;7.32;;
27408;SDS011;20413;50.782;7.152;2023-01-28T07:51:45;14.48;;;7.90;;
27408;SDS011;20413;50.782;7.152;2023-01-28T07:54:12;12.15;;;8.00;;
27408;SDS011;20413;50.782;7.152;2023-01-28T07:56:38;10.45;;;7.63;;
27408;SDS011;20413;50.782;7.152;2023-01-28T07:59:04;9.77;;;7.80;;
27408;SDS011;20413;50.782;7.152;2023-01-28T08:01:30;14.35;;;7.05;;
27408;SDS011;20413;50.782;7.152;2023-01-28T08:03:57;11.93;;;7.05;;
27408;SDS011;20413;50.782;7.152;2023-01-28T08:06:22;11.65;;;7.85;;
27408;SDS011;20413;50.782;7.152;2023-01-28T08:08:49;11.80;;;7.90;;
27408;SDS011;20413;50.782;7.152;2023-01-28T08:11:15;11.65;;;7.03;;
27408;SDS011;20413;50.782;7.152;2023-01-28T08:13:41;8.55;;;6.47;;
27408;SDS011;20413;50.782;7.152;2023-01-28T08:16:07;9.13;;;6.90;;
27408;SDS011;20413;50.782;7.152;2023-01-28T08:18:33;8.88;;;7.03;;
27408;SDS011;20413;50.782;7.152;2023-01-28T08:20:59;9.35;;;7.43;;
27408;SDS011;20413;50.782;7.152;2023-01-28T08:23:25;8.32;;;6.50;;
27408;SDS011;20413;50.782;7.152;2023-01-28T08:25:52;11.27;;;8.20;;
27408;SDS011;20413;50.782;7.152;2023-01-28T08:28:19;9.40;;;7.53;;
27408;SDS011;20413;50.782;7.152;2023-01-28T08:30:45;9.52;;;6.47;;
27408;SDS011;20413;50.782;7.152;2023-01-28T08:33:13;11.63;;;7.88;;
27408;SDS011;20413;50.782;7.152;2023-01-28T08:35:39;12.25;;;8.07;;
27408;SDS011;20413;50.782;7.152;2023-01-28T08:38:05;10.00;;;7.40;;
27408;SDS011;20413;50.782;7.152;2023-01-28T08:40:32;17.02;;;7.97;;
27408;SDS011;20413;50.782;7.152;2023-01-28T08:42:58;11.02;;;8.02;;
27408;SDS011;20413;50.782;7.152;2023-01-28T08:45:27;11.10;;;8.02;;
27408;SDS011;20413;50.782;7.152;2023-01-28T08:50:20;14.02;;;7.78;;
27408;SDS011;20413;50.782;7.152;2023-01-28T08:52:47;9.85;;;7.00;;
27408;SDS011;20413;50.782;7.152;2023-01-28T08:55:14;10.07;;;7.15;;
27408;SDS011;20413;50.782;7.152;2023-01-28T08:57:40;10.43;;;7.15;;
27408;SDS011;20413;50.782;7.152;2023-01-28T09:00:06;11.35;;;7.78;;
27408;SDS011;20413;50.782;7.152;2023-01-28T09:02:34;10.93;;;6.40;;
27408;SDS011;20413;50.782;7.152;2023-01-28T09:05:00;9.20;;;5.90;;
27408;SDS011;20413;50.782;7.152;2023-01-28T09:07:26;9.07;;;7.00;;
27408;SDS011;20413;50.782;7.152;2023-01-28T09:09:52;10.48;;;6.78;;
27408;SDS011;20413;50.782;7.152;2023-01-28T09:12:18;12.05;;;6.78;;
27408;SDS011;20413;50.782;7.152;2023-01-28T09:14:44;19.35;;;7.82;;
27408;SDS011;20413;50.782;7.152;2023-01-28T09:17:10;7.90;;;6.55;;
27408;SDS011;20413;50.782;7.152;2023-01-28T09:19:36;11.05;;;7.10;;
27408;SDS011;20413;50.782;7.152;2023-01-28T09:22:04;10.00;;;6.25;;
27408;SDS011;20413;50.782;7.152;2023-01-28T09:24:30;9.52;;;6.00;;
27408;SDS011;20413;50.782;7.152;2023-01-28T09:26:56;12.27;;;6.22;;
27408;SDS011;20413;50.782;7.152;2023-01-28T09:29:22;9.43;;;6.38;;
27408;SDS011;20413;50.782;7.152;2023-01-28T09:31:48;7.95;;;6.20;;
27408;SDS011;20413;50.782;7.152;2023-01-28T09:34:14;7.32;;;6.00;;
27408;SDS011;20413;50.782;7.152;2023-01-28T09:36:40;9.13;;;6.25;;
27408;SDS011;20413;50.782;7.152;2023-01-28T09:39:06;8.77;;;5.75;;
27408;SDS011;20413;50.782;7.152;2023-01-28T09:41:45;8.43;;;5.80;;
27408;SDS011;20413;50.782;7.152;2023-01-28T09:46:45;11.45;;;6.28;;
27408;SDS011;20413;50.782;7.152;2023-01-28T09:51:48;8.75;;;6.32;;
27408;SDS011;20413;50.782;7.152;2023-01-28T09:56:42;11.52;;;6.70;;
27408;SDS011;20413;50.782;7.152;2023-01-28T09:59:15;7.80;;;5.70;;
27408;SDS011;20413;50.782;7.152;2023-01-28T10:01:46;6.75;;;5.72;;
27408;SDS011;20413;50.782;7.152;2023-01-28T10:12:03;8.52;;;6.95;;
27408;SDS011;20413;50.782;7.152;2023-01-28T10:17:09;9.60;;;6.70;;
27408;SDS011;20413;50.782;7.152;2023-01-28T10:19:42;8.63;;;6.60;;
27408;SDS011;20413;50.782;7.152;2023-01-28T10:22:17;10.60;;;6.68;;
27408;SDS011;20413;50.782;7.152;2023-01-28T10:24:46;9.95;;;6.43;;
27408;SDS011;20413;50.782;7.152;2023-01-28T10:29:39;9.55;;;6.55;;
27408;SDS011;20413;50.782;7.152;2023-01-28T10:34:43;12.35;;;7.22;;
27408;SDS011;20413;50.782;7.152;2023-01-28T10:37:11;7.40;;;6.32;;
27408;SDS011;20413;50.782;7.152;2023-01-28T10:39:37;8.07;;;6.32;;
27408;SDS011;20413;50.782;7.152;2023-01-28T10:42:37;8.63;;;6.53;;
27408;SDS011;20413;50.782;7.152;2023-01-28T10:45:17;10.43;;;6.22;;
27408;SDS011;20413;50.782;7.152;2023-01-28T10:50:34;8.50;;;6.60;;
27408;SDS011;20413;50.782;7.152;2023-01-28T10:53:01;7.47;;;5.57;;
27408;SDS011;20413;50.782;7.152;2023-01-28T10:55:29;7.53;;;5.88;;
27408;SDS011;20413;50.782;7.152;2023-01-28T10:57:55;8.90;;;6.45;;
27408;SDS011;20413;50.782;7.152;2023-01-28T11:00:33;10.70;;;6.20;;
27408;SDS011;20413;50.782;7.152;2023-01-28T11:03:00;11.63;;;7.32;;
27408;SDS011;20413;50.782;7.152;2023-01-28T11:05:29;8.50;;;5.43;;
27408;SDS011;20413;50.782;7.152;2023-01-28T11:08:12;6.45;;;5.30;;
27408;SDS011;20413;50.782;7.152;2023-01-28T11:10:39;12.13;;;8.00;;
27408;SDS011;20413;50.782;7.152;2023-01-28T11:13:06;13.75;;;7.82;;
27408;SDS011;20413;50.782;7.152;2023-01-28T11:15:49;13.98;;;10.23;;
27408;SDS011;20413;50.782;7.152;2023-01-28T11:18:20;9.70;;;6.57;;
27408;SDS011;20413;50.782;7.152;2023-01-28T11:20:49;8.30;;;6.30;;
27408;SDS011;20413;50.782;7.152;2023-01-28T11:23:20;13.45;;;9.05;;
27408;SDS011;20413;50.782;7.152;2023-01-28T11:25:48;10.32;;;6.70;;
27408;SDS011;20413;50.782;7.152;2023-01-28T11:28:17;8.18;;;6.30;;
27408;SDS011;20413;50.782;7.152;2023-01-28T11:30:48;8.50;;;6.22;;
27408;SDS011;20413;50.782;7.152;2023-01-28T11:33:16;7.47;;;6.50;;
27408;SDS011;20413;50.782;7.152;2023-01-28T11:35:51;9.15;;;5.78;;
27408;SDS011;20413;50.782;7.152;2023-01-28T11:38:18;7.65;;;5.93;;
27408;SDS011;20413;50.782;7.152;2023-01-28T11:40:51;8.75;;;6.28;;
27408;SDS011;20413;50.782;7.152;2023-01-28T11:43:18;7.35;;;6.10;;
27408;SDS011;20413;50.782;7.152;2023-01-28T11:45:48;7.32;;;6.05;;
27408;SDS011;20413;50.782;7.152;2023-01-28T11:48:25;7.80;;;5.82;;
27408;SDS011;20413;50.782;7.152;2023-01-28T11:53:41;7.22;;;5.43;;
27408;SDS011;20413;50.782;7.152;2023-01-28T11:59:02;6.50;;;5.63;;
27408;SDS011;20413;50.782;7.152;2023-01-28T12:12:03;7.90;;;5.68;;
27408;SDS011;20413;50.782;7.152;2023-01-28T12:17:07;7.78;;;6.50;;
27408;SDS011;20413;50.782;7.152;2023-01-28T12:25:06;7.93;;;6.88;;
27408;SDS011;20413;50.782;7.152;2023-01-28T12:35:25;7.90;;;6.30;;
27408;SDS011;20413;50.782;7.152;2023-01-28T12:38:03;6.57;;;5.72;;
27408;SDS011;20413;50.782;7.152;2023-01-28T12:40:49;9.68;;;6.32;;
27408;SDS011;20413;50.782;7.152;2023-01-28T12:43:19;9.75;;;7.13;;
27408;SDS011;20413;50.782;7.152;2023-01-28T12:45:54;7.70;;;6.38;;
27408;SDS011;20413;50.782;7.152;2023-01-28T12:48:23;8.52;;;6.80;;
27408;SDS011;20413;50.782;7.152;2023-01-28T12:53:56;8.25;;;6.85;;
27408;SDS011;20413;50.782;7.152;2023-01-28T12:56:28;10.30;;;7.20;;
27408;SDS011;20413;50.782;7.152;2023-01-28T12:58:59;11.30;;;7.50;;
27408;SDS011;20413;50.782;7.152;2023-01-28T13:04:03;8.40;;;6.85;;
27408;SDS011;20413;50.782;7.152;2023-01-28T13:06:32;8.50;;;7.03;;
27408;SDS011;20413;50.782;7.152;2023-01-28T13:09:02;9.25;;;6.50;;
27408;SDS011;20413;50.782;7.152;2023-01-28T13:11:34;7.07;;;6.38;;
27408;SDS011;20413;50.782;7.152;2023-01-28T13:14:01;11.00;;;6.75;;
27408;SDS011;20413;50.782;7.152;2023-01-28T13:16:28;10.53;;;6.20;;
27408;SDS011;20413;50.782;7.152;2023-01-28T13:19:03;9.07;;;7.50;;
27408;SDS011;20413;50.782;7.152;2023-01-28T13:21:31;10.63;;;6.68;;
27408;SDS011;20413;50.782;7.152;2023-01-28T13:26:36;10.48;;;7.90;;
27408;SDS011;20413;50.782;7.152;2023-01-28T13:31:41;8.27;;;6.18;;
27408;SDS011;20413;50.782;7.152;2023-01-28T13:34:10;8.70;;;6.40;;
27408;SDS011;20413;50.782;7.152;2023-01-28T13:36:43;6.82;;;6.13;;
27408;SDS011;20413;50.782;7.152;2023-01-28T13:41:41;6.03;;;5.43;;
27408;SDS011;20413;50.782;7.152;2023-01-28T13:46:53;7.00;;;6.28;;
27408;SDS011;20413;50.782;7.152;2023-01-28T13:49:33;8.18;;;5.72;;
27408;SDS011;20413;50.782;7.152;2023-01-28T13:54:38;8.05;;;6.30;;
27408;SDS011;20413;50.782;7.152;2023-01-28T13:59:53;12.38;;;7.88;;
27408;SDS011;20413;50.782;7.152;2023-01-28T14:07:26;4.50;;;4.10;;
27408;SDS011;20413;50.782;7.152;2023-01-28T14:15:31;5.57;;;5.07;;
27408;SDS011;20413;50.782;7.152;2023-01-28T14:18:04;4.78;;;4.28;;
27408;SDS011;20413;50.782;7.152;2023-01-28T14:20:37;5.30;;;4.80;;
27408;SDS011;20413;50.782;7.152;2023-01-28T14:23:14;5.40;;;4.40;;
27408;SDS011;20413;50.782;7.152;2023-01-28T14:28:15;4.75;;;4.35;;
27408;SDS011;20413;50.782;7.152;2023-01-28T14:30:48;6.65;;;4.75;;
27408;SDS011;20413;50.782;7.152;2023-01-28T14:33:16;5.65;;;4.70;;
27408;SDS011;20413;50.782;7.152;2023-01-28T14:35:45;4.90;;;4.50;;
27408;SDS011;20413;50.782;7.152;2023-01-28T14:38:16;5.68;;;4.85;;
27408;SDS011;20413;50.782;7.152;2023-01-28T14:40:42;5.97;;;5.38;;
27408;SDS011;20413;50.782;7.152;2023-01-28T14:43:12;5.43;;;4.93;;
27408;SDS011;20413;50.782;7.152;2023-01-28T14:59:19;6.07;;;5.40;;
27408;SDS011;20413;50.782;7.152;2023-01-28T15:01:46;10.40;;;6.05;;
27408;SDS011;20413;50.782;7.152;2023-01-28T15:06:48;7.88;;;6.15;;
27408;SDS011;20413;50.782;7.152;2023-01-28T15:09:15;6.80;;;5.68;;
27408;SDS011;20413;50.782;7.152;2023-01-28T15:11:41;7.22;;;5.53;;
27408;SDS011;20413;50.782;7.152;2023-01-28T15:14:15;6.85;;;5.63;;
27408;SDS011;20413;50.782;7.152;2023-01-28T15:16:46;7.25;;;5.10;;
27408;SDS011;20413;50.782;7.152;2023-01-28T15:19:12;9.23;;;5.50;;
27408;SDS011;20413;50.782;7.152;2023-01-28T15:21:38;5.53;;;5.03;;
27408;SDS011;20413;50.782;7.152;2023-01-28T15:24:05;8.57;;;5.90;;
27408;SDS011;20413;50.782;7.152;2023-01-28T15:26:38;10.07;;;6.30;;
27408;SDS011;20413;50.782;7.152;2023-01-28T15:29:04;7.07;;;5.50;;
27408;SDS011;20413;50.782;7.152;2023-01-28T15:31:36;8.13;;;5.85;;
27408;SDS011;20413;50.782;7.152;2023-01-28T15:34:12;7.68;;;6.70;;
27408;SDS011;20413;50.782;7.152;2023-01-28T15:36:38;8.52;;;6.75;;
27408;SDS011;20413;50.782;7.152;2023-01-28T15:39:11;6.35;;;5.75;;
27408;SDS011;20413;50.782;7.152;2023-01-28T15:41:38;7.18;;;5.60;;
27408;SDS011;20413;50.782;7.152;2023-01-28T15:44:05;9.45;;;5.43;;
27408;SDS011;20413;50.782;7.152;2023-01-28T15:46:31;7.68;;;6.05;;
27408;SDS011;20413;50.782;7.152;2023-01-28T15:48:58;8.65;;;5.93;;
27408;SDS011;20413;50.782;7.152;2023-01-28T15:51:26;6.70;;;6.00;;
27408;SDS011;20413;50.782;7.152;2023-01-28T15:53:55;16.55;;;8.68;;
27408;SDS011;20413;50.782;7.152;2023-01-28T15:56:24;8.30;;;6.88;;
27408;SDS011;20413;50.782;7.152;2023-01-28T15:58:51;7.85;;;6.20;;
27408;SDS011;20413;50.782;7.152;2023-01-28T16:01:17;8.27;;;6.60;;
27408;SDS011;20413;50.782;7.152;2023-01-28T16:03:45;11.57;;;7.25;;
27408;SDS011;20413;50.782;7.152;2023-01-28T16:06:13;10.05;;;6.50;;
27408;SDS011;20413;50.782;7.152;2023-01-28T16:08:49;12.40;;;6.88;;
27408;SDS011;20413;50.782;7.152;2023-01-28T16:11:20;10.20;;;7.28;;
27408;SDS011;20413;50.782;7.152;2023-01-28T16:13:46;13.43;;;8.30;;
27408;SDS011;20413;50.782;7.152;2023-01-28T16:16:12;13.82;;;7.78;;
27408;SDS011;20413;50.782;7.152;2023-01-28T16:21:05;9.70;;;7.40;;
27408;SDS011;20413;50.782;7.152;2023-01-28T16:23:32;10.15;;;7.30;;
27408;SDS011;20413;50.782;7.152;2023-01-28T16:25:59;12.20;;;7.13;;
27408;SDS011;20413;50.782;7.152;2023-01-28T16:28:26;15.60;;;7.82;;
27408;SDS011;20413;50.782;7.152;2023-01-28T16:30:53;8.40;;;6.17;;
27408;SDS011;20413;50.782;7.152;2023-01-28T16:33:19;12.80;;;7.72;;
27408;SDS011;20413;50.782;7.152;2023-01-28T16:35:46;10.55;;;7.80;;
27408;SDS011;20413;50.782;7.152;2023-01-28T16:38:12;11.70;;;7.88;;
27408;SDS011;20413;50.782;7.152;2023-01-28T16:43:07;18.20;;;9.45;;
27408;SDS011;20413;50.782;7.152;2023-01-28T16:45:36;14.55;;;7.43;;
27408;SDS011;20413;50.782;7.152;2023-01-28T16:48:02;14.07;;;7.90;;
27408;SDS011;20413;50.782;7.152;2023-01-28T16:50:28;13.27;;;8.43;;
27408;SDS011;20413;50.782;7.152;2023-01-28T16:52:56;13.68;;;7.47;;
27408;SDS011;20413;50.782;7.152;2023-01-28T16:55:22;9.85;;;7.30;;
27408;SDS011;20413;50.782;7.152;2023-01-28T16:57:49;11.60;;;7.90;;
27408;SDS011;20413;50.782;7.152;2023-01-28T17:02:47;13.68;;;10.18;;
27408;SDS011;20413;50.782;7.152;2023-01-28T17:05:13;19.65;;;10.40;;
27408;SDS011;20413;50.782;7.152;2023-01-28T17:07:39;17.17;;;11.05;;
27408;SDS011;20413;50.782;7.152;2023-01-28T17:10:06;15.88;;;10.23;;
27408;SDS011;20413;50.782;7.152;2023-01-28T17:12:32;17.23;;;11.65;;